Time;durP1;ratioP1;P1;durP2;ratioP2;P2;SDS_P1;SDS_P2;PMS_P1;PMS_P2;Temp;Humidity;BMP_temperature;BMP_pressure;BME280_temperature;BME280_humidity;BME280_pressure;Samples;Min_cycle;Max_cycle;Signal;HPM_P1;HPM_P2
2021/12/14 00:00:29;;;;;;;21.93;11.20;;;;;;;3.45;100.00;96310.41;4955393;28;20217;-47
2021/12/14 00:02:56;;;;;;;27.47;11.23;;;;;;;3.41;100.00;96306.81;4954974;29;20217;-47
2021/12/14 00:05:27;;;;;;;22.23;11.57;;;;;;;3.40;100.00;96304.44;4955210;28;20201;-46
2021/12/14 00:07:56;;;;;;;21.60;10.47;;;;;;;3.38;100.00;96303.97;4955820;28;20307;-47
2021/12/14 00:13:07;;;;;;;17.73;9.93;;;;;;;3.38;100.00;96307.47;4956372;29;20220;-55
2021/12/14 00:15:32;;;;;;;20.20;9.83;;;;;;;3.43;100.00;96304.56;4955801;29;20240;-56
2021/12/14 00:18:04;;;;;;;18.47;10.10;;;;;;;3.45;100.00;96296.13;4955211;28;20646;-55
2021/12/14 00:20:36;;;;;;;18.10;9.13;;;;;;;3.45;100.00;96296.13;4955230;28;20205;-55
2021/12/14 00:25:40;;;;;;;19.43;8.63;;;;;;;3.31;100.00;96293.75;4956444;29;20240;-56
2021/12/14 00:28:20;;;;;;;16.07;8.37;;;;;;;3.27;100.00;96297.44;4956580;29;20227;-56
2021/12/14 00:30:48;;;;;;;16.10;8.73;;;;;;;3.18;100.00;96286.72;4955214;29;20208;-56
2021/12/14 00:33:16;;;;;;;15.40;8.93;;;;;;;3.16;100.00;96294.38;4955589;29;20256;-59
2021/12/14 00:35:42;;;;;;;22.40;8.10;;;;;;;3.07;100.00;96293.66;4955292;29;20205;-44
2021/12/14 00:38:11;;;;;;;19.87;7.70;;;;;;;3.03;100.00;96290.06;4956146;29;20201;-45
2021/12/14 00:40:39;;;;;;;13.17;7.83;;;;;;;3.04;100.00;96302.44;4957575;28;20296;-45
2021/12/14 00:43:06;;;;;;;13.93;7.73;;;;;;;3.00;100.00;96296.16;4958947;29;20656;-46
2021/12/14 00:45:34;;;;;;;17.00;8.87;;;;;;;2.91;100.00;96300.81;4958797;29;20201;-43
2021/12/14 00:48:00;;;;;;;16.27;7.90;;;;;;;2.91;100.00;96303.53;4958826;29;20212;-47
2021/12/14 00:50:28;;;;;;;14.87;6.67;;;;;;;2.91;100.00;96297.31;4958878;29;20208;-59
2021/12/14 00:52:54;;;;;;;19.23;6.53;;;;;;;2.82;100.00;96315.50;4959034;29;20748;-55
2021/12/14 00:55:39;;;;;;;12.80;7.33;;;;;;;2.82;100.00;96319.00;4958722;29;20201;-53
2021/12/14 00:58:06;;;;;;;11.97;6.90;;;;;;;2.84;100.00;96319.44;4959172;28;20611;-54
2021/12/14 01:00:35;;;;;;;12.73;6.13;;;;;;;2.83;100.00;96312.47;4958616;28;20652;-51
2021/12/14 01:03:03;;;;;;;21.30;6.97;;;;;;;2.73;100.00;96296.69;4958706;28;20205;-54
2021/12/14 01:05:33;;;;;;;28.33;7.10;;;;;;;2.64;100.00;96309.47;4958700;29;20263;-53
2021/12/14 01:08:03;;;;;;;12.23;7.03;;;;;;;2.57;100.00;96314.59;4958430;29;20228;-55
2021/12/14 01:10:37;;;;;;;32.37;6.63;;;;;;;2.47;100.00;96303.41;4958506;29;20230;-47
2021/12/14 01:13:08;;;;;;;19.57;6.67;;;;;;;2.38;100.00;96306.19;4958488;28;20205;-49
2021/12/14 01:21:18;;;;;;;44.67;7.07;;;;;;;2.30;100.00;96307.03;4959776;29;20209;-45
2021/12/14 01:23:45;;;;;;;21.27;6.87;;;;;;;2.31;100.00;96311.31;4958275;29;20204;-46
2021/12/14 01:26:18;;;;;;;14.10;6.17;;;;;;;2.37;100.00;96310.00;4958134;29;20247;-52
2021/12/14 01:28:45;;;;;;;20.80;6.10;;;;;;;2.34;100.00;96305.25;4958294;29;20221;-54
2021/12/14 01:31:24;;;;;;;47.03;7.30;;;;;;;2.31;100.00;96311.31;4958514;28;20247;-52
2021/12/14 01:33:59;;;;;;;34.33;7.20;;;;;;;2.23;100.00;96314.84;4959785;29;20284;-51
2021/12/14 01:36:42;;;;;;;24.20;6.20;;;;;;;2.23;100.00;96314.06;4958654;29;20201;-52
2021/12/14 01:42:04;;;;;;;27.23;5.87;;;;;;;2.13;100.00;96320.63;4959150;29;20204;-52
2021/12/14 01:44:34;;;;;;;24.03;5.20;;;;;;;2.08;100.00;96339.66;4957574;29;20677;-53
2021/12/14 01:47:05;;;;;;;8.33;5.17;;;;;;;2.16;100.00;96346.13;4958240;29;20348;-45
2021/12/14 01:49:32;;;;;;;10.60;5.10;;;;;;;2.21;100.00;96337.84;4957961;28;20216;-52
2021/12/14 01:52:04;;;;;;;7.70;5.63;;;;;;;2.23;100.00;96341.78;4957243;28;20201;-50
2021/12/14 01:54:35;;;;;;;19.97;5.63;;;;;;;2.16;100.00;96330.75;4957991;28;20214;-53
2021/12/14 01:57:07;;;;;;;17.67;4.57;;;;;;;2.12;100.00;96332.50;4958156;29;20205;-54
2021/12/14 01:59:36;;;;;;;20.70;5.73;;;;;;;2.10;100.00;96331.25;4957798;28;20201;-49
2021/12/14 02:04:42;;;;;;;27.43;4.30;;;;;;;1.75;100.00;96337.94;4959369;29;20208;-44
2021/12/14 02:07:10;;;;;;;13.17;3.80;;;;;;;1.66;100.00;96337.19;4957621;29;20231;-43
2021/12/14 02:09:37;;;;;;;13.30;4.20;;;;;;;1.62;100.00;96337.03;4958135;29;20201;-44
2021/12/14 02:12:10;;;;;;;23.53;5.27;;;;;;;1.59;100.00;96331.50;4957197;29;20208;-44
2021/12/14 02:14:36;;;;;;;35.97;5.13;;;;;;;1.57;100.00;96329.13;4957492;29;20212;-43
2021/12/14 02:17:03;;;;;;;26.43;4.17;;;;;;;1.49;100.00;96338.03;4957753;29;20223;-43
2021/12/14 02:19:30;;;;;;;16.20;4.60;;;;;;;1.46;100.00;96338.66;4957528;29;20247;-42
2021/12/14 02:21:58;;;;;;;10.47;4.50;;;;;;;1.56;100.00;96337.56;4957140;29;20205;-77
2021/12/14 02:24:27;;;;;;;19.17;4.53;;;;;;;1.65;100.00;96341.78;4957447;29;20537;-73
2021/12/14 02:26:53;;;;;;;15.17;4.63;;;;;;;1.71;100.00;96332.41;4957074;29;20257;-73
2021/12/14 02:29:32;;;;;;;14.03;4.50;;;;;;;1.77;100.00;96338.41;4957353;29;20254;-74
2021/12/14 02:32:06;;;;;;;16.80;4.73;;;;;;;1.79;100.00;96330.78;4957554;28;20250;-73
2021/12/14 02:34:39;;;;;;;15.07;4.50;;;;;;;1.77;100.00;96330.31;4957691;29;20660;-74
2021/12/14 02:37:05;;;;;;;13.47;5.33;;;;;;;1.79;100.00;96334.25;4956580;29;20302;-73
2021/12/14 02:42:06;;;;;;;21.70;4.90;;;;;;;1.68;100.00;96329.59;4958218;29;20232;-74
2021/12/14 02:44:32;;;;;;;19.80;5.50;;;;;;;1.68;100.00;96324.19;4957072;29;20216;-43
2021/12/14 02:47:01;;;;;;;19.27;5.50;;;;;;;1.63;100.00;96317.09;4957163;28;20224;-43
2021/12/14 02:49:31;;;;;;;8.37;4.53;;;;;;;1.63;100.00;96317.09;4956700;28;20251;-44
2021/12/14 02:52:03;;;;;;;11.87;4.40;;;;;;;1.62;100.00;96314.72;4956745;29;20219;-43
2021/12/14 02:54:33;;;;;;;13.43;5.53;;;;;;;1.63;100.00;96314.41;4957071;29;20531;-44
2021/12/14 02:57:06;;;;;;;5.90;3.73;;;;;;;1.67;100.00;96307.25;4956729;28;20693;-44
2021/12/14 02:59:35;;;;;;;5.23;3.43;;;;;;;1.71;100.00;96312.78;4956583;28;20182;-56
2021/12/14 03:02:05;;;;;;;10.07;3.90;;;;;;;1.72;100.00;96315.16;4956905;29;20656;-51
2021/12/14 03:04:59;;;;;;;7.83;3.83;;;;;;;1.67;100.00;96317.25;4955473;28;20226;-52
2021/12/14 03:07:31;;;;;;;15.30;3.93;;;;;;;1.54;100.00;96310.97;4954858;29;20371;-51
2021/12/14 03:12:46;;;;;;;12.77;3.73;;;;;;;1.58;100.00;96309.19;4958157;29;20206;-54
2021/12/14 03:15:17;;;;;;;8.10;4.27;;;;;;;1.62;100.00;96310.13;4955950;29;20177;-53
2021/12/14 03:17:43;;;;;;;10.87;4.67;;;;;;;1.68;100.00;96308.81;4956123;28;20662;-57
2021/12/14 03:20:13;;;;;;;14.63;3.90;;;;;;;1.68;100.00;96303.44;4956514;28;20293;-73
2021/12/14 03:22:58;;;;;;;12.23;3.67;;;;;;;1.68;100.00;96308.81;4956370;29;20661;-73
2021/12/14 03:25:24;;;;;;;5.00;3.30;;;;;;;1.73;100.00;96310.53;4956115;28;20207;-73
2021/12/14 03:27:52;;;;;;;12.83;3.60;;;;;;;1.72;100.00;96312.47;4956175;28;20213;-73
2021/12/14 03:30:27;;;;;;;16.30;3.50;;;;;;;1.73;100.00;96316.72;4956089;29;20259;-73
2021/12/14 03:32:57;;;;;;;20.53;3.70;;;;;;;1.67;100.00;96318.00;4956131;29;20197;-72
2021/12/14 03:35:38;;;;;;;17.57;4.43;;;;;;;1.63;100.00;96317.09;4955763;28;20195;-57
2021/12/14 03:38:13;;;;;;;10.87;3.97;;;;;;;1.64;100.00;96312.50;4956238;29;20258;-54
2021/12/14 03:40:38;;;;;;;13.73;3.73;;;;;;;1.64;100.00;96313.28;4955829;29;20298;-54
2021/12/14 03:43:04;;;;;;;11.67;4.00;;;;;;;1.65;100.00;96311.38;4955717;29;20203;-54
2021/12/14 03:45:29;;;;;;;15.50;3.30;;;;;;;1.56;100.00;96316.03;4955579;29;20593;-53
2021/12/14 03:47:58;;;;;;;17.70;3.10;;;;;;;1.50;100.00;96309.22;4955335;28;20232;-53
2021/12/14 03:50:31;;;;;;;15.80;2.80;;;;;;;1.38;100.00;96304.53;4955483;29;20256;-54
2021/12/14 03:52:56;;;;;;;12.57;2.90;;;;;;;1.29;100.00;96295.69;4955379;29;20252;-54
2021/12/14 03:55:32;;;;;;;3.40;2.47;;;;;;;1.27;100.00;96303.28;4955942;28;20217;-71
2021/12/14 03:57:58;;;;;;;7.50;2.80;;;;;;;1.35;100.00;96302.47;4955723;29;20562;-54
2021/12/14 04:00:35;;;;;;;8.13;2.77;;;;;;;1.42;100.00;96310.84;4955565;29;20199;-53
2021/12/14 04:03:05;;;;;;;10.63;3.33;;;;;;;1.46;100.00;96319.84;4955904;28;20204;-53
2021/12/14 04:05:33;;;;;;;7.23;3.07;;;;;;;1.51;100.00;96314.28;4955401;29;20210;-52
2021/12/14 04:07:58;;;;;;;12.47;3.50;;;;;;;1.51;100.00;96308.13;4955769;28;20266;-52
2021/12/14 04:10:30;;;;;;;9.57;2.90;;;;;;;1.54;100.00;96308.28;4955350;29;20205;-50
2021/12/14 04:12:57;;;;;;;18.23;3.37;;;;;;;1.44;100.00;96303.25;4955907;29;20285;-65
2021/12/14 04:15:23;;;;;;;17.30;3.27;;;;;;;1.43;100.00;96307.06;4954981;28;20294;-46
2021/12/14 04:17:49;;;;;;;6.70;2.60;;;;;;;1.44;100.00;96303.25;4955394;29;20205;-45
2021/12/14 04:20:22;;;;;;;7.70;3.20;;;;;;;1.44;100.00;96300.56;4955377;29;20201;-46
2021/12/14 04:22:49;;;;;;;13.53;3.97;;;;;;;1.45;100.00;96304.03;4955633;28;20238;-45
2021/12/14 04:25:19;;;;;;;28.77;5.73;;;;;;;1.48;100.00;96298.78;4955229;29;20207;-46
2021/12/14 04:27:46;;;;;;;21.53;4.40;;;;;;;1.43;100.00;96303.56;4955415;29;20210;-46
2021/12/14 04:30:15;;;;;;;9.57;3.60;;;;;;;1.50;100.00;96301.16;4955457;28;20215;-53
2021/12/14 04:32:40;;;;;;;11.03;3.23;;;;;;;1.51;100.00;96295.47;4954783;29;20204;-42
2021/12/14 04:35:07;;;;;;;8.43;3.50;;;;;;;1.56;100.00;96299.88;4955024;29;20199;-69
2021/12/14 04:37:38;;;;;;;6.97;3.97;;;;;;;1.56;100.00;96289.88;4954749;28;20213;-72
2021/12/14 04:40:34;;;;;;;13.23;3.70;;;;;;;1.55;100.00;96295.59;4955618;28;20203;-71
2021/12/14 04:51:58;;;;;;;14.37;4.00;;;;;;;1.41;100.00;96279.66;4956969;29;20224;-53
2021/12/14 04:54:45;;;;;;;8.67;3.53;;;;;;;1.45;100.00;96267.16;4955487;29;20271;-53
2021/12/14 04:57:31;;;;;;;15.00;3.53;;;;;;;1.43;100.00;96258.63;4955096;29;20221;-52
2021/12/14 05:00:19;;;;;;;7.97;3.37;;;;;;;1.43;100.00;96269.38;4954894;29;20217;-50
2021/12/14 05:02:45;;;;;;;12.10;3.50;;;;;;;1.42;100.00;96262.41;4951017;29;20208;-50
2021/12/14 05:05:18;;;;;;;8.77;3.07;;;;;;;1.42;100.00;96265.09;4955232;29;20246;-54
2021/12/14 05:11:08;;;;;;;7.47;2.93;;;;;;;1.40;100.00;96285.38;4956046;29;20282;-76
2021/12/14 05:13:41;;;;;;;13.20;3.83;;;;;;;1.36;100.00;96274.47;4954610;29;20203;-73
2021/12/14 05:16:14;;;;;;;16.10;3.43;;;;;;;1.36;100.00;96271.00;4954441;28;20260;-75
2021/12/14 05:18:48;;;;;;;13.43;3.10;;;;;;;1.34;100.00;96270.53;4955005;29;20201;-74
2021/12/14 05:21:25;;;;;;;11.90;3.13;;;;;;;1.30;100.00;96275.75;4955634;29;20629;-73
2021/12/14 05:23:51;;;;;;;11.03;3.13;;;;;;;1.31;100.00;96276.56;4954863;28;20248;-72
2021/12/14 05:26:17;;;;;;;14.63;2.93;;;;;;;1.24;100.00;96277.03;4954979;28;20557;-46
2021/12/14 05:28:43;;;;;;;13.97;3.10;;;;;;;1.22;100.00;96279.28;4957974;29;20214;-55
2021/12/14 05:31:09;;;;;;;9.73;3.17;;;;;;;1.25;100.00;96284.00;4958253;29;20194;-56
2021/12/14 05:33:36;;;;;;;8.53;3.57;;;;;;;1.31;100.00;96290.78;4957795;29;20218;-56
2021/12/14 05:36:08;;;;;;;5.43;2.80;;;;;;;1.34;100.00;96287.44;4958042;29;20344;-56
2021/12/14 05:43:59;;;;;;;7.00;3.20;;;;;;;1.33;100.00;96291.25;4940290;29;20218;-43
2021/12/14 05:46:25;;;;;;;14.60;3.40;;;;;;;1.31;100.00;96277.31;4957752;29;20233;-43
2021/12/14 05:48:58;;;;;;;13.43;4.20;;;;;;;1.32;100.00;96276.25;4958132;29;20342;-54
2021/12/14 05:51:24;;;;;;;10.07;3.27;;;;;;;1.31;100.00;96271.94;4958206;29;20216;-57
2021/12/14 05:53:49;;;;;;;16.47;3.60;;;;;;;1.26;100.00;96268.66;4957475;28;20541;-54
2021/12/14 05:56:18;;;;;;;22.97;3.60;;;;;;;1.17;100.00;96259.84;4957786;29;20643;-55
2021/12/14 05:58:44;;;;;;;13.97;3.50;;;;;;;1.13;100.00;96267.75;4957872;29;20269;-52
2021/12/14 06:01:14;;;;;;;9.70;2.90;;;;;;;1.14;100.00;96265.84;4957674;29;20260;-57
2021/12/14 06:03:46;;;;;;;11.77;3.10;;;;;;;1.13;100.00;96264.28;4957624;29;20207;-59
2021/12/14 06:06:19;;;;;;;7.17;2.87;;;;;;;1.10;100.00;96265.72;4957854;29;20190;-58
2021/12/14 06:08:45;;;;;;;9.83;3.20;;;;;;;1.08;100.00;96267.91;4957707;29;20221;-55
2021/12/14 06:11:25;;;;;;;7.17;3.27;;;;;;;1.07;100.00;96270.94;4958049;29;20214;-57
2021/12/14 06:13:51;;;;;;;15.10;3.10;;;;;;;1.03;100.00;96270.78;4957446;29;20238;-52
2021/12/14 06:16:28;;;;;;;6.77;3.10;;;;;;;0.96;100.00;96259.75;4957661;29;20593;-55
2021/12/14 06:19:13;;;;;;;7.77;3.03;;;;;;;0.89;100.00;96253.25;4957338;28;20202;-54
2021/12/14 06:21:39;;;;;;;5.83;3.27;;;;;;;0.88;100.00;96244.44;4957506;29;20213;-52
2021/12/14 06:24:07;;;;;;;6.23;3.40;;;;;;;0.85;100.00;96249.63;4957635;29;20250;-46
2021/12/14 06:26:39;;;;;;;5.00;2.93;;;;;;;0.84;100.00;96246.16;4957209;29;20174;-45
2021/12/14 06:29:12;;;;;;;4.87;2.27;;;;;;;0.81;100.00;96251.41;4958389;29;20243;-45
2021/12/14 06:31:37;;;;;;;4.50;2.93;;;;;;;0.79;100.00;96243.66;4957468;29;20200;-45
2021/12/14 06:34:26;;;;;;;4.13;2.50;;;;;;;0.77;100.00;96248.56;4956398;29;20224;-45
2021/12/14 06:37:03;;;;;;;3.97;2.90;;;;;;;0.75;100.00;96242.72;4956958;29;20370;-44
2021/12/14 06:39:30;;;;;;;4.87;3.03;;;;;;;0.75;100.00;96248.09;4972859;28;20205;-44
2021/12/14 06:42:09;;;;;;;4.53;2.60;;;;;;;0.73;100.00;96241.47;4957016;28;20225;-55
2021/12/14 06:44:34;;;;;;;3.60;2.80;;;;;;;0.71;100.00;96243.66;4956916;29;20186;-53
2021/12/14 06:46:59;;;;;;;4.83;2.87;;;;;;;0.73;100.00;96242.22;4957329;28;20256;-55
2021/12/14 06:49:25;;;;;;;4.40;3.07;;;;;;;0.68;100.00;96245.09;4957139;28;20281;-55
2021/12/14 06:51:54;;;;;;;3.73;2.47;;;;;;;0.62;100.00;96237.53;4956493;29;20211;-54
2021/12/14 06:54:24;;;;;;;3.20;2.57;;;;;;;0.58;100.00;96231.22;4956199;29;20285;-55
2021/12/14 06:56:53;;;;;;;5.37;2.57;;;;;;;0.55;100.00;96231.84;4956598;28;20203;-57
2021/12/14 06:59:22;;;;;;;16.97;3.50;;;;;;;0.53;100.00;96224.09;4956650;29;20199;-72
2021/12/14 07:01:58;;;;;;;4.50;2.67;;;;;;;0.55;100.00;96227.28;4956161;29;20255;-45
2021/12/14 07:04:26;;;;;;;4.57;2.83;;;;;;;0.63;100.00;96222.97;4956613;29;20196;-45
2021/12/14 07:06:53;;;;;;;3.53;2.60;;;;;;;0.75;100.00;96236.53;4956098;29;20294;-48
2021/12/14 07:09:25;;;;;;;4.90;3.07;;;;;;;0.90;100.00;96231.44;4956611;29;20210;-47
2021/12/14 07:12:06;;;;;;;2.93;2.40;;;;;;;1.12;100.00;96231.22;4956009;28;20671;-46
2021/12/14 07:14:31;;;;;;;4.13;2.80;;;;;;;1.52;100.00;96234.34;4955762;29;20202;-46
2021/12/14 07:17:01;;;;;;;3.33;2.63;;;;;;;2.02;100.00;96217.09;4971886;28;20202;-75
2021/12/14 07:19:42;;;;;;;4.43;3.23;;;;;;;2.53;100.00;96221.25;4955950;29;20297;-47
2021/12/14 07:22:40;;;;;;;3.87;3.13;;;;;;;3.10;100.00;96214.78;4971994;28;20210;-49
2021/12/14 07:25:24;;;;;;;6.63;4.93;;;;;;;3.58;100.00;96215.94;4955758;29;20216;-45
2021/12/14 07:27:49;;;;;;;4.60;3.70;;;;;;;4.00;100.00;96214.56;4971717;28;20252;-44
2021/12/14 07:30:26;;;;;;;4.00;2.57;;;;;;;4.64;100.00;96215.25;4972015;28;20244;-47
2021/12/14 07:32:54;;;;;;;4.20;3.20;;;;;;;5.27;100.00;96209.59;4955717;29;20252;-47
2021/12/14 07:35:26;;;;;;;4.63;3.30;;;;;;;5.42;100.00;96213.41;4971506;28;20237;-49
2021/12/14 07:37:52;;;;;;;4.77;3.07;;;;;;;5.84;100.00;96215.28;4972036;28;20214;-60
2021/12/14 07:40:20;;;;;;;4.73;3.43;;;;;;;6.08;100.00;96208.81;4955539;29;20206;-60
2021/12/14 07:42:46;;;;;;;5.37;3.30;;;;;;;6.37;100.00;96211.00;4955638;28;20250;-59
2021/12/14 07:45:23;;;;;;;3.93;2.80;;;;;;;6.62;100.00;96226.66;4955672;28;20212;-60
2021/12/14 07:47:51;;;;;;;4.23;2.83;;;;;;;6.77;100.00;96238.56;4955604;29;20328;-61
2021/12/14 07:50:16;;;;;;;4.77;3.70;;;;;;;6.87;100.00;96248.84;4955234;28;20518;-60
2021/12/14 07:52:42;;;;;;;3.30;3.00;;;;;;;6.92;100.00;96267.56;4955629;29;20309;-60
2021/12/14 07:55:19;;;;;;;4.03;2.90;;;;;;;6.65;100.00;96284.84;4955620;29;20204;-52
2021/12/14 07:57:47;;;;;;;4.07;3.40;;;;;;;6.51;100.00;96279.13;4955726;29;20218;-47
2021/12/14 08:00:22;;;;;;;3.40;3.10;;;;;;;6.31;100.00;96291.09;4955059;29;20235;-46
2021/12/14 08:02:51;;;;;;;3.57;2.90;;;;;;;5.98;100.00;96309.66;4955454;29;20341;-54
2021/12/14 08:05:19;;;;;;;3.30;2.93;;;;;;;5.77;100.00;96303.69;4955443;29;20202;-47
2021/12/14 08:07:48;;;;;;;3.43;2.80;;;;;;;5.52;100.00;96305.78;4970669;28;20321;-45
2021/12/14 08:10:16;;;;;;;5.00;3.50;;;;;;;5.34;100.00;96299.13;4954969;29;20315;-46
2021/12/14 08:12:52;;;;;;;3.73;3.03;;;;;;;5.28;100.00;96297.03;4955531;29;20211;-45
2021/12/14 08:15:26;;;;;;;4.33;2.87;;;;;;;5.20;100.00;96301.44;4954814;29;20210;-54
2021/12/14 08:18:09;;;;;;;5.97;3.30;;;;;;;5.25;100.00;96292.28;4954932;29;20217;-53
2021/12/14 08:20:57;;;;;;;4.00;3.00;;;;;;;5.29;100.00;96298.59;4971050;28;20205;-52
2021/12/14 08:23:31;;;;;;;4.23;3.13;;;;;;;5.34;100.00;96290.19;4954975;29;20220;-50
2021/12/14 08:26:09;;;;;;;4.23;2.90;;;;;;;5.46;100.00;96288.22;4955276;29;20251;-51
2021/12/14 08:28:48;;;;;;;3.60;2.60;;;;;;;5.44;100.00;96292.41;4954837;29;20219;-53
2021/12/14 08:31:14;;;;;;;4.20;2.80;;;;;;;5.47;100.00;96289.00;4954861;29;20202;-42
2021/12/14 08:33:40;;;;;;;2.80;2.20;;;;;;;5.63;100.00;96287.09;4954493;29;20211;-74
2021/12/14 08:36:09;;;;;;;3.30;2.47;;;;;;;5.73;100.00;96286.56;4954772;28;20213;-71
2021/12/14 08:38:36;;;;;;;3.53;2.40;;;;;;;5.91;100.00;96285.09;4954755;29;20257;-72
2021/12/14 08:41:22;;;;;;;5.07;4.30;;;;;;;5.90;100.00;96291.69;4954623;29;20261;-69
2021/12/14 08:43:50;;;;;;;12.93;10.67;;;;;;;5.94;100.00;96296.03;4954607;29;20195;-72
2021/12/14 08:46:24;;;;;;;5.47;3.50;;;;;;;6.05;100.00;96299.00;4955198;29;20243;-68
2021/12/14 08:48:54;;;;;;;3.97;2.73;;;;;;;6.56;100.00;96292.41;4954416;29;20226;-47
2021/12/14 08:51:29;;;;;;;4.53;3.10;;;;;;;6.88;100.00;96302.78;4954689;29;20258;-52
2021/12/14 08:54:12;;;;;;;5.20;3.80;;;;;;;7.37;100.00;96294.84;4954654;29;20205;-53
2021/12/14 08:56:47;;;;;;;3.40;3.00;;;;;;;7.95;100.00;96292.72;4970962;28;20250;-54
2021/12/14 08:59:12;;;;;;;5.90;3.93;;;;;;;8.46;100.00;96292.03;4954622;28;20219;-53
2021/12/14 09:01:40;;;;;;;4.23;3.30;;;;;;;8.72;100.00;96283.81;4955485;28;20233;-54
2021/12/14 09:04:13;;;;;;;3.83;2.63;;;;;;;8.82;100.00;96277.72;4958523;29;20182;-53
2021/12/14 09:06:40;;;;;;;3.97;3.10;;;;;;;8.56;100.00;96283.19;4958912;28;20208;-54
2021/12/14 09:09:09;;;;;;;4.13;3.00;;;;;;;8.23;100.00;96277.66;4958193;29;20226;-51
2021/12/14 09:11:38;;;;;;;4.47;3.47;;;;;;;7.73;100.00;96269.84;4958323;29;20265;-70
2021/12/14 09:14:09;;;;;;;3.87;2.93;;;;;;;7.66;100.00;96269.72;4957994;29;20569;-69
2021/12/14 09:16:36;;;;;;;4.60;3.57;;;;;;;7.46;100.00;96275.59;4958466;29;20254;-70
2021/12/14 09:19:16;;;;;;;3.93;3.53;;;;;;;7.01;100.00;96270.84;4958318;28;20224;-68
2021/12/14 09:21:46;;;;;;;4.30;3.83;;;;;;;6.63;100.00;96276.28;4958535;28;20193;-69
2021/12/14 09:24:16;;;;;;;5.70;3.67;;;;;;;6.43;100.00;96269.25;4958502;28;20208;-68
2021/12/14 09:26:46;;;;;;;4.77;3.37;;;;;;;6.44;100.00;96262.69;4958083;29;20206;-56
2021/12/14 09:29:14;;;;;;;5.53;3.67;;;;;;;6.41;100.00;96241.72;4958418;28;20230;-53
2021/12/14 09:31:43;;;;;;;5.57;3.80;;;;;;;6.37;100.00;96240.81;4957728;29;20235;-50
2021/12/14 09:34:11;;;;;;;3.40;3.10;;;;;;;6.47;100.00;96235.66;4956583;29;20254;-47
2021/12/14 09:36:38;;;;;;;5.83;3.10;;;;;;;6.67;100.00;96239.16;4957916;29;20596;-50
2021/12/14 09:39:35;;;;;;;6.13;3.10;;;;;;;7.23;100.00;96234.81;4956561;28;20203;-48
2021/12/14 09:42:03;;;;;;;4.57;3.27;;;;;;;7.89;100.00;96235.16;4953162;28;20224;-51
2021/12/14 09:44:31;;;;;;;5.13;2.80;;;;;;;8.12;100.00;96233.16;4955867;29;20204;-70
2021/12/14 09:47:01;;;;;;;2.30;2.10;;;;;;;8.81;100.00;96216.25;4956322;29;20201;-69
2021/12/14 09:49:28;;;;;;;2.97;2.67;;;;;;;9.57;100.00;96220.94;4956675;28;20190;-70
2021/12/14 09:51:58;;;;;;;4.23;2.63;;;;;;;9.85;100.00;96215.72;4956098;29;20213;-69
2021/12/14 09:54:27;;;;;;;3.57;2.43;;;;;;;10.32;100.00;96216.84;4956025;29;20185;-70
2021/12/14 09:56:58;;;;;;;2.80;2.30;;;;;;;10.19;100.00;96212.88;4956956;29;20202;-71
2021/12/14 09:59:23;;;;;;;4.27;2.27;;;;;;;10.29;100.00;96212.13;4956057;28;20294;-71
2021/12/14 10:01:59;;;;;;;2.40;2.10;;;;;;;10.21;100.00;96210.53;4955885;29;20192;-59
2021/12/14 10:04:34;;;;;;;2.50;2.30;;;;;;;9.58;100.00;96222.50;4956369;28;20202;-43
2021/12/14 10:07:03;;;;;;;2.53;2.30;;;;;;;9.46;100.00;96220.06;4955455;29;20192;-46
2021/12/14 10:09:31;;;;;;;3.60;2.80;;;;;;;9.45;100.00;96228.59;4955729;29;20217;-44
2021/12/14 10:13:09;;;;;;;3.23;2.50;;;;;;;9.43;100.00;96231.69;4955508;28;20190;-43
2021/12/14 10:15:16;;;;;;;4.73;2.80;;;;;;;9.18;100.00;96247.00;4951890;28;20200;-45
2021/12/14 10:17:43;;;;;;;4.60;3.40;;;;;;;9.01;100.00;96253.06;4955800;29;20224;-43
2021/12/14 10:20:13;;;;;;;3.40;2.87;;;;;;;9.10;100.00;96239.91;4955373;29;20206;-45
2021/12/14 10:22:39;;;;;;;3.57;2.50;;;;;;;9.17;100.00;96240.00;4955655;28;20181;-55
2021/12/14 10:25:10;;;;;;;4.57;2.70;;;;;;;9.25;100.00;96236.19;4955148;28;20181;-44
2021/12/14 10:27:37;;;;;;;3.60;2.60;;;;;;;9.12;100.00;96229.44;4955818;28;20205;-43
2021/12/14 10:30:12;;;;;;;4.03;2.83;;;;;;;8.87;100.00;96233.81;4955482;29;20191;-45
2021/12/14 10:32:37;;;;;;;4.20;3.00;;;;;;;8.74;100.00;96232.50;4956710;28;20217;-43
2021/12/14 10:35:13;;;;;;;4.20;3.13;;;;;;;8.47;100.00;96230.97;4955335;28;20204;-43
2021/12/14 10:43:15;;;;;;;4.23;3.30;;;;;;;8.39;100.00;96232.03;4956255;29;20192;-52
2021/12/14 10:45:53;;;;;;;5.13;3.27;;;;;;;8.70;100.00;96219.97;4955382;29;20185;-54
2021/12/14 10:48:21;;;;;;;4.13;2.97;;;;;;;8.78;100.00;96222.41;4955449;29;20233;-54
2021/12/14 10:50:50;;;;;;;3.77;2.90;;;;;;;8.94;100.00;96222.22;4955087;29;20281;-54
2021/12/14 10:53:20;;;;;;;4.90;3.00;;;;;;;8.81;100.00;96227.13;4955126;29;20185;-50
2021/12/14 10:56:06;;;;;;;3.43;2.70;;;;;;;8.83;100.00;96224.84;4954904;29;20216;-51
2021/12/14 10:58:31;;;;;;;3.33;3.00;;;;;;;8.79;100.00;96218.56;4955247;28;20197;-55
2021/12/14 11:01:07;;;;;;;9.80;6.33;;;;;;;8.84;100.00;96220.94;4954625;29;20201;-57
2021/12/14 11:03:41;;;;;;;5.13;3.70;;;;;;;8.76;100.00;96232.13;4954886;28;20185;-56
2021/12/14 11:06:12;;;;;;;2.77;2.57;;;;;;;8.62;100.00;96235.47;4955103;28;20197;-53
2021/12/14 11:08:49;;;;;;;3.67;3.00;;;;;;;8.69;100.00;96234.75;4954769;29;20213;-57
2021/12/14 11:11:20;;;;;;;5.73;3.30;;;;;;;8.85;100.00;96232.63;4955050;29;20185;-57
2021/12/14 11:13:53;;;;;;;5.13;3.40;;;;;;;8.79;100.00;96234.91;4955002;28;20225;-52
2021/12/14 11:16:34;;;;;;;6.50;3.80;;;;;;;8.67;100.00;96234.34;4954532;29;20197;-60
2021/12/14 11:19:06;;;;;;;5.13;3.30;;;;;;;8.70;100.00;96231.66;4954824;28;20208;-46
2021/12/14 11:21:32;;;;;;;5.77;3.10;;;;;;;8.78;100.00;96236.03;4954436;28;20189;-44
2021/12/14 11:23:57;;;;;;;5.10;3.20;;;;;;;8.78;100.00;96232.56;4953802;28;20578;-45
2021/12/14 11:26:27;;;;;;;4.60;3.20;;;;;;;8.87;100.00;96233.81;4954448;28;20200;-44
2021/12/14 11:29:04;;;;;;;12.27;7.57;;;;;;;9.04;100.00;96230.50;4954252;29;20224;-54
2021/12/14 11:31:43;;;;;;;3.90;3.50;;;;;;;8.95;100.00;96232.75;4954295;28;20275;-45
2021/12/14 11:34:13;;;;;;;5.83;3.73;;;;;;;8.99;100.00;96236.28;4954413;28;20671;-60
2021/12/14 11:36:53;;;;;;;5.57;3.77;;;;;;;8.87;100.00;96231.09;4954427;29;20549;-55
2021/12/14 11:39:28;;;;;;;5.37;4.07;;;;;;;8.91;100.00;96226.47;4954441;28;20181;-51
2021/12/14 11:42:07;;;;;;;4.43;3.40;;;;;;;8.68;100.00;96228.53;4953905;29;20360;-53
2021/12/14 11:44:34;;;;;;;4.67;3.63;;;;;;;8.56;100.00;96226.03;4954032;28;20279;-50
2021/12/14 11:50:01;;;;;;;6.43;4.50;;;;;;;8.46;100.00;96221.25;4955329;29;20200;-49
2021/12/14 11:52:57;;;;;;;6.23;5.20;;;;;;;8.50;100.00;96238.41;4953972;29;20220;-55
2021/12/14 11:55:24;;;;;;;6.97;4.10;;;;;;;8.32;100.00;96245.56;4954228;29;20244;-70
2021/12/14 11:58:05;;;;;;;4.37;3.50;;;;;;;8.32;100.00;96236.59;4969968;28;20225;-67
2021/12/14 12:00:32;;;;;;;3.80;3.23;;;;;;;8.32;100.00;96237.38;4953805;29;20194;-62
2021/12/14 12:03:16;;;;;;;4.13;3.47;;;;;;;8.32;100.00;96226.50;4953852;28;20200;-63
2021/12/14 12:05:58;;;;;;;3.33;2.80;;;;;;;8.37;100.00;96234.34;4953889;29;20564;-63
2021/12/14 12:11:11;;;;;;;4.93;3.43;;;;;;;8.20;100.00;96239.50;4955407;29;20204;-65
2021/12/14 12:13:39;;;;;;;5.83;3.47;;;;;;;8.05;100.00;96243.94;4954031;29;20201;-52
2021/12/14 12:16:15;;;;;;;7.73;3.83;;;;;;;8.01;100.00;96243.09;4953759;29;20213;-54
2021/12/14 12:19:05;;;;;;;4.80;4.13;;;;;;;8.01;100.00;96242.34;4954031;29;20661;-53
2021/12/14 12:21:33;;;;;;;6.33;3.30;;;;;;;8.01;100.00;96243.09;4969797;28;20224;-52
2021/12/14 12:23:59;;;;;;;7.03;4.73;;;;;;;8.04;100.00;96236.94;4953470;29;20189;-54
2021/12/14 12:26:29;;;;;;;8.67;5.67;;;;;;;8.07;100.00;96240.84;4953473;29;20195;-52
2021/12/14 12:28:58;;;;;;;5.70;3.70;;;;;;;8.04;100.00;96238.84;4953310;29;20208;-46
2021/12/14 12:31:24;;;;;;;5.87;3.50;;;;;;;7.95;100.00;96232.91;4953748;28;20243;-44
2021/12/14 12:33:55;;;;;;;4.50;3.50;;;;;;;7.95;100.00;96241.06;4953483;29;20192;-44
2021/12/14 12:36:40;;;;;;;5.70;3.80;;;;;;;7.95;100.00;96238.34;4953239;28;20739;-44
2021/12/14 12:39:10;;;;;;;5.20;3.73;;;;;;;7.89;100.00;96237.88;4953379;29;20191;-43